<?xml version="1.0" encoding="utf-8"?>
<gpx xmlns:xsi="http://www.w3.org/2001/XMLSchema-instance" xmlns:xsd="http://www.w3.org/2001/XMLSchema" version="1.1" creator="Shapelink.com" xmlns="http://www.topografix.com/GPX/1/1" xmlns:gpxtpx="http://www.garmin.com/xmlschemas/TrackPointExtension/v1">
  <metadata>
    <name>Løping 5.49 km, 2019-06-07</name>
    <desc></desc>
    <author><name>Stefan Östlund</name></author> 
    <time>2019-06-07T11:43:49Z</time>
  </metadata>
  <trk>
    <name>Løping 5.49 km, 2019-06-07</name>
    <trkseg>
      <trkpt lat="59.982293276376" lon="15.792443150483">
        <ele>98</ele>
        <time>2019-06-07T11:43:49Z</time>
      </trkpt>
      <trkpt lat="59.982228316651" lon="15.792503416344">
        <ele>98.4</ele>
        <time>2019-06-07T11:43:52Z</time>
      </trkpt>
      <trkpt lat="59.982116753562" lon="15.792671305801">
        <ele>98.4</ele>
        <time>2019-06-07T11:43:58Z</time>
      </trkpt>
      <trkpt lat="59.98198783994" lon="15.792807763133">
        <ele>98</ele>
        <time>2019-06-07T11:44:04Z</time>
      </trkpt>
      <trkpt lat="59.981880886896" lon="15.792958385876">
        <ele>97.6</ele>
        <time>2019-06-07T11:44:10Z</time>
      </trkpt>
      <trkpt lat="59.981767228332" lon="15.793123760763">
        <ele>97.6</ele>
        <time>2019-06-07T11:44:16Z</time>
      </trkpt>
      <trkpt lat="59.981680810943" lon="15.79325728443">
        <ele>97.4</ele>
        <time>2019-06-07T11:44:21Z</time>
      </trkpt>
      <trkpt lat="59.981626244774" lon="15.793519218805">
        <ele>97</ele>
        <time>2019-06-07T11:44:27Z</time>
      </trkpt>
      <trkpt lat="59.981635883959" lon="15.793784254483">
        <ele>97.2</ele>
        <time>2019-06-07T11:44:33Z</time>
      </trkpt>
      <trkpt lat="59.981706962471" lon="15.794007045385">
        <ele>97.8</ele>
        <time>2019-06-07T11:44:39Z</time>
      </trkpt>
      <trkpt lat="59.981754068749" lon="15.794088098358">
        <ele>98.4</ele>
        <time>2019-06-07T11:44:42Z</time>
      </trkpt>
      <trkpt lat="59.981861440888" lon="15.794297897315">
        <ele>98.4</ele>
        <time>2019-06-07T11:44:48Z</time>
      </trkpt>
      <trkpt lat="59.982108455481" lon="15.794947243108">
        <ele>99.6</ele>
        <time>2019-06-07T11:45:22Z</time>
      </trkpt>
      <trkpt lat="59.982166709686" lon="15.795138853342">
        <ele>99.8</ele>
        <time>2019-06-07T11:45:28Z</time>
      </trkpt>
      <trkpt lat="59.982253127075" lon="15.795272125552">
        <ele>100.6</ele>
        <time>2019-06-07T11:45:34Z</time>
      </trkpt>
      <trkpt lat="59.981652983035" lon="15.797366846181">
        <ele>96.4</ele>
        <time>2019-06-07T11:47:16Z</time>
      </trkpt>
      <trkpt lat="59.981479729162" lon="15.797325691052">
        <ele>95.2</ele>
        <time>2019-06-07T11:47:22Z</time>
      </trkpt>
      <trkpt lat="59.981379816914" lon="15.797311358003">
        <ele>94.8</ele>
        <time>2019-06-07T11:47:26Z</time>
      </trkpt>
      <trkpt lat="59.981300943235" lon="15.797438846702">
        <ele>94.2</ele>
        <time>2019-06-07T11:47:30Z</time>
      </trkpt>
      <trkpt lat="59.981240677374" lon="15.79753205343">
        <ele>93.2</ele>
        <time>2019-06-07T11:47:33Z</time>
      </trkpt>
      <trkpt lat="59.98109852035" lon="15.797418227228">
        <ele>93.6</ele>
        <time>2019-06-07T11:47:39Z</time>
      </trkpt>
      <trkpt lat="59.980991399668" lon="15.797282859543">
        <ele>94.2</ele>
        <time>2019-06-07T11:47:44Z</time>
      </trkpt>
      <trkpt lat="59.980882518787" lon="15.797074569328">
        <ele>94.2</ele>
        <time>2019-06-07T11:47:50Z</time>
      </trkpt>
      <trkpt lat="59.98078000815" lon="15.796889413157">
        <ele>94.2</ele>
        <time>2019-06-07T11:47:56Z</time>
      </trkpt>
      <trkpt lat="59.980660398437" lon="15.796693360516">
        <ele>94.4</ele>
        <time>2019-06-07T11:48:02Z</time>
      </trkpt>
      <trkpt lat="59.980550595547" lon="15.796504683947">
        <ele>94.8</ele>
        <time>2019-06-07T11:48:08Z</time>
      </trkpt>
      <trkpt lat="59.980442049942" lon="15.796316761749">
        <ele>95.2</ele>
        <time>2019-06-07T11:48:14Z</time>
      </trkpt>
      <trkpt lat="59.980368540679" lon="15.796235960233">
        <ele>95.2</ele>
        <time>2019-06-07T11:48:17Z</time>
      </trkpt>
      <trkpt lat="59.980301485479" lon="15.795958603162">
        <ele>95</ele>
        <time>2019-06-07T11:48:23Z</time>
      </trkpt>
      <trkpt lat="59.980283296756" lon="15.795854751421">
        <ele>94.8</ele>
        <time>2019-06-07T11:48:25Z</time>
      </trkpt>
      <trkpt lat="59.980255636486" lon="15.795540346352">
        <ele>94.6</ele>
        <time>2019-06-07T11:48:31Z</time>
      </trkpt>
      <trkpt lat="59.980229987872" lon="15.795268856611">
        <ele>95</ele>
        <time>2019-06-07T11:48:37Z</time>
      </trkpt>
      <trkpt lat="59.980203920163" lon="15.795033995773">
        <ele>95.2</ele>
        <time>2019-06-07T11:48:43Z</time>
      </trkpt>
      <trkpt lat="59.980175924617" lon="15.794761248747">
        <ele>95.4</ele>
        <time>2019-06-07T11:48:49Z</time>
      </trkpt>
      <trkpt lat="59.980131081452" lon="15.794493027947">
        <ele>95.8</ele>
        <time>2019-06-07T11:48:55Z</time>
      </trkpt>
      <trkpt lat="59.980087495572" lon="15.794207624252">
        <ele>96.4</ele>
        <time>2019-06-07T11:49:01Z</time>
      </trkpt>
      <trkpt lat="59.980046172805" lon="15.793952898311">
        <ele>97.2</ele>
        <time>2019-06-07T11:49:07Z</time>
      </trkpt>
      <trkpt lat="59.980070564134" lon="15.79386748675">
        <ele>97.4</ele>
        <time>2019-06-07T11:49:10Z</time>
      </trkpt>
      <trkpt lat="59.980178942101" lon="15.793647294237">
        <ele>98.4</ele>
        <time>2019-06-07T11:49:16Z</time>
      </trkpt>
      <trkpt lat="59.980285140774" lon="15.793423748964">
        <ele>98.2</ele>
        <time>2019-06-07T11:49:22Z</time>
      </trkpt>
      <trkpt lat="59.980402906469" lon="15.793210597247">
        <ele>97.6</ele>
        <time>2019-06-07T11:49:28Z</time>
      </trkpt>
      <trkpt lat="59.980422017201" lon="15.793178997484">
        <ele>97.4</ele>
        <time>2019-06-07T11:49:29Z</time>
      </trkpt>
      <trkpt lat="59.980480271406" lon="15.792914213263">
        <ele>96.6</ele>
        <time>2019-06-07T11:49:35Z</time>
      </trkpt>
      <trkpt lat="59.980480690501" lon="15.792818994879">
        <ele>96.4</ele>
        <time>2019-06-07T11:49:37Z</time>
      </trkpt>
      <trkpt lat="59.980432829852" lon="15.792577177064">
        <ele>96.4</ele>
        <time>2019-06-07T11:49:43Z</time>
      </trkpt>
      <trkpt lat="59.980305676429" lon="15.792380705328">
        <ele>96.6</ele>
        <time>2019-06-07T11:49:49Z</time>
      </trkpt>
      <trkpt lat="59.980178606825" lon="15.792190771474">
        <ele>97.2</ele>
        <time>2019-06-07T11:49:55Z</time>
      </trkpt>
      <trkpt lat="59.980094787825" lon="15.79195892812">
        <ele>97.2</ele>
        <time>2019-06-07T11:50:01Z</time>
      </trkpt>
      <trkpt lat="59.9801052652" lon="15.791911486566">
        <ele>97.2</ele>
        <time>2019-06-07T11:50:02Z</time>
      </trkpt>
      <trkpt lat="59.980224036723" lon="15.791742507462">
        <ele>96.6</ele>
        <time>2019-06-07T11:50:08Z</time>
      </trkpt>
      <trkpt lat="59.980331995595" lon="15.791611666003">
        <ele>95.2</ele>
        <time>2019-06-07T11:50:13Z</time>
      </trkpt>
      <trkpt lat="59.980439451553" lon="15.791467413504">
        <ele>94.2</ele>
        <time>2019-06-07T11:50:17Z</time>
      </trkpt>
      <trkpt lat="59.980536430136" lon="15.791203886568">
        <ele>94</ele>
        <time>2019-06-07T11:50:23Z</time>
      </trkpt>
      <trkpt lat="59.980538190335" lon="15.790937928881">
        <ele>93.6</ele>
        <time>2019-06-07T11:50:29Z</time>
      </trkpt>
      <trkpt lat="59.980490916419" lon="15.790710527934">
        <ele>93.6</ele>
        <time>2019-06-07T11:50:35Z</time>
      </trkpt>
      <trkpt lat="59.980447498177" lon="15.790453287423">
        <ele>93.4</ele>
        <time>2019-06-07T11:50:41Z</time>
      </trkpt>
      <trkpt lat="59.980377425493" lon="15.79021214016">
        <ele>93.4</ele>
        <time>2019-06-07T11:50:47Z</time>
      </trkpt>
      <trkpt lat="59.980358901494" lon="15.790174253972">
        <ele>93</ele>
        <time>2019-06-07T11:50:48Z</time>
      </trkpt>
      <trkpt lat="59.980228395311" lon="15.790025978161">
        <ele>92.4</ele>
        <time>2019-06-07T11:50:54Z</time>
      </trkpt>
      <trkpt lat="59.980077521111" lon="15.789948864681">
        <ele>92.4</ele>
        <time>2019-06-07T11:51:00Z</time>
      </trkpt>
      <trkpt lat="59.979960928882" lon="15.789781981052">
        <ele>92.4</ele>
        <time>2019-06-07T11:51:06Z</time>
      </trkpt>
      <trkpt lat="59.979829081595" lon="15.789610822654">
        <ele>92.6</ele>
        <time>2019-06-07T11:51:12Z</time>
      </trkpt>
      <trkpt lat="59.979711483538" lon="15.789483669231">
        <ele>92.8</ele>
        <time>2019-06-07T11:51:17Z</time>
      </trkpt>
      <trkpt lat="59.979602686476" lon="15.78924151614">
        <ele>92.4</ele>
        <time>2019-06-07T11:51:23Z</time>
      </trkpt>
      <trkpt lat="59.979549796687" lon="15.789005733293">
        <ele>92.8</ele>
        <time>2019-06-07T11:51:29Z</time>
      </trkpt>
      <trkpt lat="59.979571673446" lon="15.788707253834">
        <ele>93.8</ele>
        <time>2019-06-07T11:51:35Z</time>
      </trkpt>
      <trkpt lat="59.979617354801" lon="15.788547578639">
        <ele>94.2</ele>
        <time>2019-06-07T11:51:38Z</time>
      </trkpt>
      <trkpt lat="59.979652726419" lon="15.788386646159">
        <ele>95</ele>
        <time>2019-06-07T11:51:42Z</time>
      </trkpt>
      <trkpt lat="59.979669154943" lon="15.788346748315">
        <ele>95.4</ele>
        <time>2019-06-07T11:51:43Z</time>
      </trkpt>
      <trkpt lat="59.979726738596" lon="15.788206016214">
        <ele>96.6</ele>
        <time>2019-06-07T11:51:46Z</time>
      </trkpt>
      <trkpt lat="59.979758505997" lon="15.78808397575">
        <ele>97.6</ele>
        <time>2019-06-07T11:51:49Z</time>
      </trkpt>
      <trkpt lat="59.979740149636" lon="15.787805612851">
        <ele>98</ele>
        <time>2019-06-07T11:51:55Z</time>
      </trkpt>
      <trkpt lat="59.979662449423" lon="15.787568907995">
        <ele>96.6</ele>
        <time>2019-06-07T11:52:01Z</time>
      </trkpt>
      <trkpt lat="59.979646104718" lon="15.787531357083">
        <ele>96.2</ele>
        <time>2019-06-07T11:52:02Z</time>
      </trkpt>
      <trkpt lat="59.979610146367" lon="15.787431696292">
        <ele>95</ele>
        <time>2019-06-07T11:52:06Z</time>
      </trkpt>
      <trkpt lat="59.979607296521" lon="15.787404287479">
        <ele>94.6</ele>
        <time>2019-06-07T11:52:07Z</time>
      </trkpt>
      <trkpt lat="59.979607128883" lon="15.787174958695">
        <ele>94.2</ele>
        <time>2019-06-07T11:52:13Z</time>
      </trkpt>
      <trkpt lat="59.979667981477" lon="15.786691825979">
        <ele>94.2</ele>
        <time>2019-06-07T11:52:22Z</time>
      </trkpt>
      <trkpt lat="59.979731013365" lon="15.786360573291">
        <ele>94.8</ele>
        <time>2019-06-07T11:52:28Z</time>
      </trkpt>
      <trkpt lat="59.979773258141" lon="15.786049101887">
        <ele>95</ele>
        <time>2019-06-07T11:52:34Z</time>
      </trkpt>
      <trkpt lat="59.979773006684" lon="15.785716508095">
        <ele>95</ele>
        <time>2019-06-07T11:52:40Z</time>
      </trkpt>
      <trkpt lat="59.979726738596" lon="15.785377124964">
        <ele>95.4</ele>
        <time>2019-06-07T11:52:46Z</time>
      </trkpt>
      <trkpt lat="59.979677620662" lon="15.785077807315">
        <ele>95.8</ele>
        <time>2019-06-07T11:52:52Z</time>
      </trkpt>
      <trkpt lat="59.979662952337" lon="15.784924502364">
        <ele>96</ele>
        <time>2019-06-07T11:52:55Z</time>
      </trkpt>
      <trkpt lat="59.979642416682" lon="15.784622083412">
        <ele>97.4</ele>
        <time>2019-06-07T11:53:01Z</time>
      </trkpt>
      <trkpt lat="59.979626239615" lon="15.784420414898">
        <ele>98.4</ele>
        <time>2019-06-07T11:53:05Z</time>
      </trkpt>
      <trkpt lat="59.979592879653" lon="15.784199887109">
        <ele>99.4</ele>
        <time>2019-06-07T11:53:10Z</time>
      </trkpt>
      <trkpt lat="59.979554742008" lon="15.784030153634">
        <ele>100.6</ele>
        <time>2019-06-07T11:53:14Z</time>
      </trkpt>
      <trkpt lat="59.979506629902" lon="15.783876848683">
        <ele>101.6</ele>
        <time>2019-06-07T11:53:18Z</time>
      </trkpt>
      <trkpt lat="59.979461786737" lon="15.783763525395">
        <ele>102.8</ele>
        <time>2019-06-07T11:53:21Z</time>
      </trkpt>
      <trkpt lat="59.979370759303" lon="15.783643748044">
        <ele>103.8</ele>
        <time>2019-06-07T11:53:25Z</time>
      </trkpt>
      <trkpt lat="59.979233799057" lon="15.783488263799">
        <ele>104.2</ele>
        <time>2019-06-07T11:53:31Z</time>
      </trkpt>
      <trkpt lat="59.979110920403" lon="15.783343759843">
        <ele>103.4</ele>
        <time>2019-06-07T11:53:37Z</time>
      </trkpt>
      <trkpt lat="59.979001704246" lon="15.783265724354">
        <ele>103</ele>
        <time>2019-06-07T11:53:42Z</time>
      </trkpt>
      <trkpt lat="59.978965662076" lon="15.783210906728">
        <ele>102.8</ele>
        <time>2019-06-07T11:53:44Z</time>
      </trkpt>
      <trkpt lat="59.978849069847" lon="15.783129602298">
        <ele>101.6</ele>
        <time>2019-06-07T11:53:49Z</time>
      </trkpt>
      <trkpt lat="59.978767094865" lon="15.783085513504">
        <ele>100.6</ele>
        <time>2019-06-07T11:53:53Z</time>
      </trkpt>
      <trkpt lat="59.978645808772" lon="15.782982499953">
        <ele>99.2</ele>
        <time>2019-06-07T11:53:59Z</time>
      </trkpt>
      <trkpt lat="59.978624770203" lon="15.78297017856">
        <ele>99</ele>
        <time>2019-06-07T11:54:00Z</time>
      </trkpt>
      <trkpt lat="59.978548997827" lon="15.782938830254">
        <ele>98</ele>
        <time>2019-06-07T11:54:03Z</time>
      </trkpt>
      <trkpt lat="59.978445816638" lon="15.782880408411">
        <ele>96.8</ele>
        <time>2019-06-07T11:54:07Z</time>
      </trkpt>
      <trkpt lat="59.978269042367" lon="15.782751662427">
        <ele>96</ele>
        <time>2019-06-07T11:54:13Z</time>
      </trkpt>
      <trkpt lat="59.978208944144" lon="15.782688714358">
        <ele>95.8</ele>
        <time>2019-06-07T11:54:15Z</time>
      </trkpt>
      <trkpt lat="59.97807013988" lon="15.782463408886">
        <ele>95.4</ele>
        <time>2019-06-07T11:54:21Z</time>
      </trkpt>
      <trkpt lat="59.977957570963" lon="15.782203821443">
        <ele>95</ele>
        <time>2019-06-07T11:54:27Z</time>
      </trkpt>
      <trkpt lat="59.977899065301" lon="15.782076081287">
        <ele>94.8</ele>
        <time>2019-06-07T11:54:30Z</time>
      </trkpt>
      <trkpt lat="59.977802589632" lon="15.781804088632">
        <ele>94</ele>
        <time>2019-06-07T11:54:36Z</time>
      </trkpt>
      <trkpt lat="59.977687254688" lon="15.781596552788">
        <ele>93.8</ele>
        <time>2019-06-07T11:54:42Z</time>
      </trkpt>
      <trkpt lat="59.977668227775" lon="15.781560845894">
        <ele>93.6</ele>
        <time>2019-06-07T11:54:43Z</time>
      </trkpt>
      <trkpt lat="59.977561190912" lon="15.781344844331">
        <ele>93.4</ele>
        <time>2019-06-07T11:54:49Z</time>
      </trkpt>
      <trkpt lat="59.977444263407" lon="15.781176116684">
        <ele>93.4</ele>
        <time>2019-06-07T11:54:55Z</time>
      </trkpt>
      <trkpt lat="59.977295149406" lon="15.781016022394">
        <ele>93.6</ele>
        <time>2019-06-07T11:55:01Z</time>
      </trkpt>
      <trkpt lat="59.977155758409" lon="15.780824998893">
        <ele>94.2</ele>
        <time>2019-06-07T11:55:07Z</time>
      </trkpt>
      <trkpt lat="59.977133630193" lon="15.78078920818">
        <ele>94.4</ele>
        <time>2019-06-07T11:55:08Z</time>
      </trkpt>
      <trkpt lat="59.977085769544" lon="15.780725086645">
        <ele>94.4</ele>
        <time>2019-06-07T11:55:10Z</time>
      </trkpt>
      <trkpt lat="59.977000106526" lon="15.780635651772">
        <ele>94.4</ele>
        <time>2019-06-07T11:55:13Z</time>
      </trkpt>
      <trkpt lat="59.97684805886" lon="15.780504307399">
        <ele>94.2</ele>
        <time>2019-06-07T11:55:19Z</time>
      </trkpt>
      <trkpt lat="59.976699196316" lon="15.780465918297">
        <ele>93.8</ele>
        <time>2019-06-07T11:55:25Z</time>
      </trkpt>
      <trkpt lat="59.976565672649" lon="15.78043381562">
        <ele>93.2</ele>
        <time>2019-06-07T11:55:31Z</time>
      </trkpt>
      <trkpt lat="59.97643986033" lon="15.780368855895">
        <ele>92.8</ele>
        <time>2019-06-07T11:55:37Z</time>
      </trkpt>
      <trkpt lat="59.976315221477" lon="15.780362653289">
        <ele>92.6</ele>
        <time>2019-06-07T11:55:42Z</time>
      </trkpt>
      <trkpt lat="59.976179769973" lon="15.78039609707">
        <ele>92.6</ele>
        <time>2019-06-07T11:55:48Z</time>
      </trkpt>
      <trkpt lat="59.975982460047" lon="15.780472875274">
        <ele>93</ele>
        <time>2019-06-07T11:55:54Z</time>
      </trkpt>
      <trkpt lat="59.975849187837" lon="15.780495087309">
        <ele>93.2</ele>
        <time>2019-06-07T11:56:00Z</time>
      </trkpt>
      <trkpt lat="59.975669898996" lon="15.780487627418">
        <ele>93.6</ele>
        <time>2019-06-07T11:56:06Z</time>
      </trkpt>
      <trkpt lat="59.975636119939" lon="15.780478742604">
        <ele>93.6</ele>
        <time>2019-06-07T11:56:07Z</time>
      </trkpt>
      <trkpt lat="59.975445515533" lon="15.780415626897">
        <ele>93.6</ele>
        <time>2019-06-07T11:56:13Z</time>
      </trkpt>
      <trkpt lat="59.975290366564" lon="15.780295681908">
        <ele>92.8</ele>
        <time>2019-06-07T11:56:19Z</time>
      </trkpt>
      <trkpt lat="59.975133457396" lon="15.780136844903">
        <ele>93</ele>
        <time>2019-06-07T11:56:25Z</time>
      </trkpt>
      <trkpt lat="59.974962215179" lon="15.779965518867">
        <ele>93</ele>
        <time>2019-06-07T11:56:31Z</time>
      </trkpt>
      <trkpt lat="59.974791559695" lon="15.779833587761">
        <ele>92.8</ele>
        <time>2019-06-07T11:56:37Z</time>
      </trkpt>
      <trkpt lat="59.974767587461" lon="15.779812633011">
        <ele>92.6</ele>
        <time>2019-06-07T11:56:38Z</time>
      </trkpt>
      <trkpt lat="59.974610510655" lon="15.779711128202">
        <ele>92.8</ele>
        <time>2019-06-07T11:56:44Z</time>
      </trkpt>
      <trkpt lat="59.974492325865" lon="15.779596882905">
        <ele>93.2</ele>
        <time>2019-06-07T11:56:50Z</time>
      </trkpt>
      <trkpt lat="59.974467850717" lon="15.779578526544">
        <ele>93.2</ele>
        <time>2019-06-07T11:56:51Z</time>
      </trkpt>
      <trkpt lat="59.974319994001" lon="15.779481296504">
        <ele>93</ele>
        <time>2019-06-07T11:56:57Z</time>
      </trkpt>
      <trkpt lat="59.974209688197" lon="15.779367721759">
        <ele>93.6</ele>
        <time>2019-06-07T11:57:03Z</time>
      </trkpt>
      <trkpt lat="59.974061160929" lon="15.77925783505">
        <ele>93.4</ele>
        <time>2019-06-07T11:57:09Z</time>
      </trkpt>
      <trkpt lat="59.973950938944" lon="15.779207208374">
        <ele>93.6</ele>
        <time>2019-06-07T11:57:14Z</time>
      </trkpt>
      <trkpt lat="59.973932163488" lon="15.779194300248">
        <ele>93.8</ele>
        <time>2019-06-07T11:57:15Z</time>
      </trkpt>
      <trkpt lat="59.973800819115" lon="15.7791446794">
        <ele>93.6</ele>
        <time>2019-06-07T11:57:21Z</time>
      </trkpt>
      <trkpt lat="59.973657320987" lon="15.779100758244">
        <ele>93.8</ele>
        <time>2019-06-07T11:57:27Z</time>
      </trkpt>
      <trkpt lat="59.973482139277" lon="15.77910528447">
        <ele>94</ele>
        <time>2019-06-07T11:57:33Z</time>
      </trkpt>
      <trkpt lat="59.973305532644" lon="15.77918742709">
        <ele>92.8</ele>
        <time>2019-06-07T11:57:39Z</time>
      </trkpt>
      <trkpt lat="59.973270161026" lon="15.779216260826">
        <ele>92.8</ele>
        <time>2019-06-07T11:57:40Z</time>
      </trkpt>
      <trkpt lat="59.973115012057" lon="15.779425808326">
        <ele>92.8</ele>
        <time>2019-06-07T11:57:45Z</time>
      </trkpt>
      <trkpt lat="59.973012249963" lon="15.779648683047">
        <ele>92.8</ele>
        <time>2019-06-07T11:57:51Z</time>
      </trkpt>
      <trkpt lat="59.972932538094" lon="15.779967027609">
        <ele>92.8</ele>
        <time>2019-06-07T11:57:58Z</time>
      </trkpt>
      <trkpt lat="59.972902363254" lon="15.780228542889">
        <ele>92.4</ele>
        <time>2019-06-07T11:58:04Z</time>
      </trkpt>
      <trkpt lat="59.973009651574" lon="15.780446891384">
        <ele>92.8</ele>
        <time>2019-06-07T11:58:10Z</time>
      </trkpt>
      <trkpt lat="59.973117358989" lon="15.780599441964">
        <ele>92.6</ele>
        <time>2019-06-07T11:58:16Z</time>
      </trkpt>
      <trkpt lat="59.973237471616" lon="15.780746125214">
        <ele>92.8</ele>
        <time>2019-06-07T11:58:22Z</time>
      </trkpt>
      <trkpt lat="59.973379293364" lon="15.780931029928">
        <ele>92.6</ele>
        <time>2019-06-07T11:58:28Z</time>
      </trkpt>
      <trkpt lat="59.973486749322" lon="15.781199669823">
        <ele>92</ele>
        <time>2019-06-07T11:58:34Z</time>
      </trkpt>
      <trkpt lat="59.973527652994" lon="15.781498400739">
        <ele>92.4</ele>
        <time>2019-06-07T11:58:40Z</time>
      </trkpt>
      <trkpt lat="59.973569478675" lon="15.78172043727">
        <ele>93</ele>
        <time>2019-06-07T11:58:45Z</time>
      </trkpt>
      <trkpt lat="59.973647933259" lon="15.781986478776">
        <ele>92.8</ele>
        <time>2019-06-07T11:58:51Z</time>
      </trkpt>
      <trkpt lat="59.97369897903" lon="15.782160738477">
        <ele>92.6</ele>
        <time>2019-06-07T11:58:55Z</time>
      </trkpt>
      <trkpt lat="59.973710965147" lon="15.782516550132">
        <ele>92.4</ele>
        <time>2019-06-07T11:59:01Z</time>
      </trkpt>
      <trkpt lat="59.973788832998" lon="15.782808491709">
        <ele>92.8</ele>
        <time>2019-06-07T11:59:07Z</time>
      </trkpt>
      <trkpt lat="59.973890170169" lon="15.783064726392">
        <ele>93.4</ele>
        <time>2019-06-07T11:59:13Z</time>
      </trkpt>
      <trkpt lat="59.973939958655" lon="15.783186180123">
        <ele>93.8</ele>
        <time>2019-06-07T11:59:16Z</time>
      </trkpt>
      <trkpt lat="59.974044229491" lon="15.78341190469">
        <ele>93.6</ele>
        <time>2019-06-07T11:59:22Z</time>
      </trkpt>
      <trkpt lat="59.974204239962" lon="15.783640395284">
        <ele>93.2</ele>
        <time>2019-06-07T11:59:28Z</time>
      </trkpt>
      <trkpt lat="59.974340864932" lon="15.783855642476">
        <ele>93.4</ele>
        <time>2019-06-07T11:59:34Z</time>
      </trkpt>
      <trkpt lat="59.974462234844" lon="15.784050102556">
        <ele>93.4</ele>
        <time>2019-06-07T11:59:40Z</time>
      </trkpt>
      <trkpt lat="59.974587125154" lon="15.784230648682">
        <ele>93.2</ele>
        <time>2019-06-07T11:59:46Z</time>
      </trkpt>
      <trkpt lat="59.974731880567" lon="15.784394850103">
        <ele>94.8</ele>
        <time>2019-06-07T11:59:52Z</time>
      </trkpt>
      <trkpt lat="59.974868337899" lon="15.784527451761">
        <ele>95.8</ele>
        <time>2019-06-07T11:59:58Z</time>
      </trkpt>
      <trkpt lat="59.975012087484" lon="15.784658125582">
        <ele>94.6</ele>
        <time>2019-06-07T12:00:04Z</time>
      </trkpt>
      <trkpt lat="59.975085596747" lon="15.784746051713">
        <ele>93.6</ele>
        <time>2019-06-07T12:00:07Z</time>
      </trkpt>
      <trkpt lat="59.975260107905" lon="15.784954677204">
        <ele>92.8</ele>
        <time>2019-06-07T12:00:13Z</time>
      </trkpt>
      <trkpt lat="59.975310064029" lon="15.78502709682">
        <ele>92.4</ele>
        <time>2019-06-07T12:00:15Z</time>
      </trkpt>
      <trkpt lat="59.975446856637" lon="15.785214432285">
        <ele>92</ele>
        <time>2019-06-07T12:00:21Z</time>
      </trkpt>
      <trkpt lat="59.97558323015" lon="15.785419872654">
        <ele>92</ele>
        <time>2019-06-07T12:00:27Z</time>
      </trkpt>
      <trkpt lat="59.975714574523" lon="15.785639310796">
        <ele>92.2</ele>
        <time>2019-06-07T12:00:33Z</time>
      </trkpt>
      <trkpt lat="59.975761094068" lon="15.785959667014">
        <ele>92.4</ele>
        <time>2019-06-07T12:00:39Z</time>
      </trkpt>
      <trkpt lat="59.9758388781" lon="15.786231659669">
        <ele>91.6</ele>
        <time>2019-06-07T12:00:45Z</time>
      </trkpt>
      <trkpt lat="59.975869220578" lon="15.786555536285">
        <ele>92.2</ele>
        <time>2019-06-07T12:00:51Z</time>
      </trkpt>
      <trkpt lat="59.975882547799" lon="15.786835407926">
        <ele>92.8</ele>
        <time>2019-06-07T12:00:57Z</time>
      </trkpt>
      <trkpt lat="59.975933258294" lon="15.787112429721">
        <ele>92.4</ele>
        <time>2019-06-07T12:01:03Z</time>
      </trkpt>
      <trkpt lat="59.975945244411" lon="15.787293059666">
        <ele>92.4</ele>
        <time>2019-06-07T12:01:07Z</time>
      </trkpt>
      <trkpt lat="59.975969049007" lon="15.787618025929">
        <ele>92.6</ele>
        <time>2019-06-07T12:01:13Z</time>
      </trkpt>
      <trkpt lat="59.976012467249" lon="15.787881049951">
        <ele>92.4</ele>
        <time>2019-06-07T12:01:19Z</time>
      </trkpt>
      <trkpt lat="59.97602244171" lon="15.787916505388">
        <ele>92.4</ele>
        <time>2019-06-07T12:01:20Z</time>
      </trkpt>
      <trkpt lat="59.976124784709" lon="15.788150947131">
        <ele>92.2</ele>
        <time>2019-06-07T12:01:26Z</time>
      </trkpt>
      <trkpt lat="59.976239030006" lon="15.788362590106">
        <ele>93</ele>
        <time>2019-06-07T12:01:32Z</time>
      </trkpt>
      <trkpt lat="59.976298625315" lon="15.788422855967">
        <ele>93.6</ele>
        <time>2019-06-07T12:01:34Z</time>
      </trkpt>
      <trkpt lat="59.976398537563" lon="15.788562414602">
        <ele>94.8</ele>
        <time>2019-06-07T12:01:38Z</time>
      </trkpt>
      <trkpt lat="59.976476824509" lon="15.788827701737">
        <ele>94.4</ele>
        <time>2019-06-07T12:01:44Z</time>
      </trkpt>
      <trkpt lat="59.976553602713" lon="15.78912584592">
        <ele>94</ele>
        <time>2019-06-07T12:01:50Z</time>
      </trkpt>
      <trkpt lat="59.976647479993" lon="15.78941083052">
        <ele>94.8</ele>
        <time>2019-06-07T12:01:56Z</time>
      </trkpt>
      <trkpt lat="59.976729957889" lon="15.789646026634">
        <ele>95</ele>
        <time>2019-06-07T12:02:02Z</time>
      </trkpt>
      <trkpt lat="59.976780836022" lon="15.789905194982">
        <ele>95.4</ele>
        <time>2019-06-07T12:02:08Z</time>
      </trkpt>
      <trkpt lat="59.976840682788" lon="15.790174086334">
        <ele>94.8</ele>
        <time>2019-06-07T12:02:14Z</time>
      </trkpt>
      <trkpt lat="59.976944618348" lon="15.790419089271">
        <ele>94.2</ele>
        <time>2019-06-07T12:02:20Z</time>
      </trkpt>
      <trkpt lat="59.97697546374" lon="15.790512379818">
        <ele>93.2</ele>
        <time>2019-06-07T12:02:22Z</time>
      </trkpt>
      <trkpt lat="59.977021145095" lon="15.790805243404">
        <ele>92.4</ele>
        <time>2019-06-07T12:02:28Z</time>
      </trkpt>
      <trkpt lat="59.977111334339" lon="15.791081846104">
        <ele>92.2</ele>
        <time>2019-06-07T12:02:34Z</time>
      </trkpt>
      <trkpt lat="59.977230608776" lon="15.791311677802">
        <ele>92.2</ele>
        <time>2019-06-07T12:02:40Z</time>
      </trkpt>
      <trkpt lat="59.977354409439" lon="15.791557854205">
        <ele>91.8</ele>
        <time>2019-06-07T12:02:46Z</time>
      </trkpt>
      <trkpt lat="59.977477791007" lon="15.791789529921">
        <ele>91.8</ele>
        <time>2019-06-07T12:02:52Z</time>
      </trkpt>
      <trkpt lat="59.977577451798" lon="15.791936213171">
        <ele>91.8</ele>
        <time>2019-06-07T12:02:58Z</time>
      </trkpt>
      <trkpt lat="59.977708628533" lon="15.792076190901">
        <ele>92</ele>
        <time>2019-06-07T12:03:04Z</time>
      </trkpt>
      <trkpt lat="59.977899652034" lon="15.792194375691">
        <ele>92.2</ele>
        <time>2019-06-07T12:03:10Z</time>
      </trkpt>
      <trkpt lat="59.978066200387" lon="15.792320020372">
        <ele>92</ele>
        <time>2019-06-07T12:03:16Z</time>
      </trkpt>
      <trkpt lat="59.978237861699" lon="15.792451364745">
        <ele>92.4</ele>
        <time>2019-06-07T12:03:22Z</time>
      </trkpt>
      <trkpt lat="59.978513207114" lon="15.792617158727">
        <ele>92.4</ele>
        <time>2019-06-07T12:03:32Z</time>
      </trkpt>
      <trkpt lat="59.978671457386" lon="15.792664097367">
        <ele>91.8</ele>
        <time>2019-06-07T12:03:38Z</time>
      </trkpt>
      <trkpt lat="59.978835155893" lon="15.792637778201">
        <ele>92.2</ele>
        <time>2019-06-07T12:03:44Z</time>
      </trkpt>
      <trkpt lat="59.978996926563" lon="15.792569381897">
        <ele>92.6</ele>
        <time>2019-06-07T12:03:50Z</time>
      </trkpt>
      <trkpt lat="59.979148303677" lon="15.792434684764">
        <ele>92.2</ele>
        <time>2019-06-07T12:03:56Z</time>
      </trkpt>
      <trkpt lat="59.979287778493" lon="15.792298478889">
        <ele>91.8</ele>
        <time>2019-06-07T12:04:02Z</time>
      </trkpt>
      <trkpt lat="59.979425325472" lon="15.79211315508">
        <ele>92.2</ele>
        <time>2019-06-07T12:04:08Z</time>
      </trkpt>
      <trkpt lat="59.979570919075" lon="15.791973931721">
        <ele>92.4</ele>
        <time>2019-06-07T12:04:14Z</time>
      </trkpt>
      <trkpt lat="59.979690864064" lon="15.792001256715">
        <ele>93.4</ele>
        <time>2019-06-07T12:04:19Z</time>
      </trkpt>
      <trkpt lat="59.979808881216" lon="15.791962364699">
        <ele>94.4</ele>
        <time>2019-06-07T12:04:24Z</time>
      </trkpt>
      <trkpt lat="59.979926060178" lon="15.791853567637">
        <ele>95</ele>
        <time>2019-06-07T12:04:30Z</time>
      </trkpt>
      <trkpt lat="59.980035611611" lon="15.791848957592">
        <ele>95.6</ele>
        <time>2019-06-07T12:04:35Z</time>
      </trkpt>
      <trkpt lat="59.980103337363" lon="15.791908971996">
        <ele>97.2</ele>
        <time>2019-06-07T12:04:38Z</time>
      </trkpt>
      <trkpt lat="59.980223030895" lon="15.792111646338">
        <ele>96.4</ele>
        <time>2019-06-07T12:04:44Z</time>
      </trkpt>
      <trkpt lat="59.980331744138" lon="15.792348770289">
        <ele>96.2</ele>
        <time>2019-06-07T12:04:50Z</time>
      </trkpt>
      <trkpt lat="59.980368037765" lon="15.792430242357">
        <ele>96</ele>
        <time>2019-06-07T12:04:52Z</time>
      </trkpt>
      <trkpt lat="59.980423106848" lon="15.792711119826">
        <ele>95.8</ele>
        <time>2019-06-07T12:04:58Z</time>
      </trkpt>
      <trkpt lat="59.98040198446" lon="15.793044467989">
        <ele>95.4</ele>
        <time>2019-06-07T12:05:04Z</time>
      </trkpt>
      <trkpt lat="59.980296037244" lon="15.793353089547">
        <ele>96</ele>
        <time>2019-06-07T12:05:10Z</time>
      </trkpt>
      <trkpt lat="59.98017064402" lon="15.793534892958">
        <ele>96.6</ele>
        <time>2019-06-07T12:05:16Z</time>
      </trkpt>
      <trkpt lat="59.980050615212" lon="15.793789954175">
        <ele>96.8</ele>
        <time>2019-06-07T12:05:22Z</time>
      </trkpt>
      <trkpt lat="59.979922204504" lon="15.793975948536">
        <ele>96.8</ele>
        <time>2019-06-07T12:05:28Z</time>
      </trkpt>
      <trkpt lat="59.97977418015" lon="15.794096899353">
        <ele>96.6</ele>
        <time>2019-06-07T12:05:34Z</time>
      </trkpt>
      <trkpt lat="59.979616851887" lon="15.794210222641">
        <ele>96.2</ele>
        <time>2019-06-07T12:05:40Z</time>
      </trkpt>
      <trkpt lat="59.979478131442" lon="15.794339890634">
        <ele>95.2</ele>
        <time>2019-06-07T12:05:46Z</time>
      </trkpt>
      <trkpt lat="59.979430186974" lon="15.794392780423">
        <ele>95</ele>
        <time>2019-06-07T12:05:48Z</time>
      </trkpt>
      <trkpt lat="59.979300854257" lon="15.794582881915">
        <ele>95.8</ele>
        <time>2019-06-07T12:05:54Z</time>
      </trkpt>
      <trkpt lat="59.979288700502" lon="15.794604088122">
        <ele>95.8</ele>
        <time>2019-06-07T12:05:56Z</time>
      </trkpt>
      <trkpt lat="59.979410824785" lon="15.794809528491">
        <ele>95.4</ele>
        <time>2019-06-07T12:06:02Z</time>
      </trkpt>
      <trkpt lat="59.979579300975" lon="15.795000468173">
        <ele>95.4</ele>
        <time>2019-06-07T12:06:08Z</time>
      </trkpt>
      <trkpt lat="59.979733360297" lon="15.795181014299">
        <ele>95.6</ele>
        <time>2019-06-07T12:06:14Z</time>
      </trkpt>
      <trkpt lat="59.979879959728" lon="15.795358794398">
        <ele>94.8</ele>
        <time>2019-06-07T12:06:20Z</time>
      </trkpt>
      <trkpt lat="59.980021110924" lon="15.79554638132">
        <ele>94.2</ele>
        <time>2019-06-07T12:06:26Z</time>
      </trkpt>
      <trkpt lat="59.980154969867" lon="15.795734722613">
        <ele>94</ele>
        <time>2019-06-07T12:06:32Z</time>
      </trkpt>
      <trkpt lat="59.980218756126" lon="15.795829857178">
        <ele>94</ele>
        <time>2019-06-07T12:06:35Z</time>
      </trkpt>
      <trkpt lat="59.980349597585" lon="15.796034124081">
        <ele>93.4</ele>
        <time>2019-06-07T12:06:41Z</time>
      </trkpt>
      <trkpt lat="59.980479684673" lon="15.796234032396">
        <ele>93.6</ele>
        <time>2019-06-07T12:06:47Z</time>
      </trkpt>
      <trkpt lat="59.980602730965" lon="15.796447519389">
        <ele>93.6</ele>
        <time>2019-06-07T12:06:53Z</time>
      </trkpt>
      <trkpt lat="59.980726280171" lon="15.796664945875">
        <ele>93.4</ele>
        <time>2019-06-07T12:06:59Z</time>
      </trkpt>
      <trkpt lat="59.980851589576" lon="15.796877259402">
        <ele>93</ele>
        <time>2019-06-07T12:07:05Z</time>
      </trkpt>
      <trkpt lat="59.980874136887" lon="15.796913804486">
        <ele>93</ele>
        <time>2019-06-07T12:07:06Z</time>
      </trkpt>
      <trkpt lat="59.981008247287" lon="15.797138774682">
        <ele>92.8</ele>
        <time>2019-06-07T12:07:12Z</time>
      </trkpt>
      <trkpt lat="59.981162977161" lon="15.797329043812">
        <ele>92.8</ele>
        <time>2019-06-07T12:07:18Z</time>
      </trkpt>
      <trkpt lat="59.981324496374" lon="15.797495843622">
        <ele>92.6</ele>
        <time>2019-06-07T12:07:24Z</time>
      </trkpt>
      <trkpt lat="59.981452739444" lon="15.797719221257">
        <ele>93</ele>
        <time>2019-06-07T12:07:30Z</time>
      </trkpt>
      <trkpt lat="59.981565056904" lon="15.797907646369">
        <ele>93</ele>
        <time>2019-06-07T12:07:36Z</time>
      </trkpt>
      <trkpt lat="59.981659437098" lon="15.798092048169">
        <ele>93.2</ele>
        <time>2019-06-07T12:07:41Z</time>
      </trkpt>
      <trkpt lat="59.981736299121" lon="15.79840880017">
        <ele>93.2</ele>
        <time>2019-06-07T12:07:47Z</time>
      </trkpt>
      <trkpt lat="59.981821794501" lon="15.798683894128">
        <ele>93.2</ele>
        <time>2019-06-07T12:07:53Z</time>
      </trkpt>
      <trkpt lat="59.981913576306" lon="15.798962592303">
        <ele>92.6</ele>
        <time>2019-06-07T12:07:59Z</time>
      </trkpt>
      <trkpt lat="59.982022876282" lon="15.799224526678">
        <ele>92.8</ele>
        <time>2019-06-07T12:08:05Z</time>
      </trkpt>
      <trkpt lat="59.982113233164" lon="15.799518731368">
        <ele>92.8</ele>
        <time>2019-06-07T12:08:11Z</time>
      </trkpt>
      <trkpt lat="59.982206858987" lon="15.799803632149">
        <ele>92.8</ele>
        <time>2019-06-07T12:08:17Z</time>
      </trkpt>
      <trkpt lat="59.982284978295" lon="15.800082497962">
        <ele>92.8</ele>
        <time>2019-06-07T12:08:23Z</time>
      </trkpt>
      <trkpt lat="59.982357565549" lon="15.800388437312">
        <ele>93.2</ele>
        <time>2019-06-07T12:08:29Z</time>
      </trkpt>
      <trkpt lat="59.982438618522" lon="15.800701166001">
        <ele>93</ele>
        <time>2019-06-07T12:08:35Z</time>
      </trkpt>
      <trkpt lat="59.982510954319" lon="15.801020851667">
        <ele>93.4</ele>
        <time>2019-06-07T12:08:41Z</time>
      </trkpt>
      <trkpt lat="59.982564598479" lon="15.801260993102">
        <ele>94</ele>
        <time>2019-06-07T12:08:46Z</time>
      </trkpt>
      <trkpt lat="59.982637772466" lon="15.801546732073">
        <ele>93.8</ele>
        <time>2019-06-07T12:08:52Z</time>
      </trkpt>
      <trkpt lat="59.982694685567" lon="15.801896089665">
        <ele>93</ele>
        <time>2019-06-07T12:08:59Z</time>
      </trkpt>
      <trkpt lat="59.982742294759" lon="15.802195323495">
        <ele>92.6</ele>
        <time>2019-06-07T12:09:05Z</time>
      </trkpt>
      <trkpt lat="59.982822006628" lon="15.802512913686">
        <ele>92.6</ele>
        <time>2019-06-07T12:09:11Z</time>
      </trkpt>
      <trkpt lat="59.982875818426" lon="15.802812231335">
        <ele>92.2</ele>
        <time>2019-06-07T12:09:17Z</time>
      </trkpt>
      <trkpt lat="59.982930971328" lon="15.803089588406">
        <ele>91.8</ele>
        <time>2019-06-07T12:09:22Z</time>
      </trkpt>
      <trkpt lat="59.982985705135" lon="15.803407513873">
        <ele>91.2</ele>
        <time>2019-06-07T12:09:28Z</time>
      </trkpt>
      <trkpt lat="59.983014455052" lon="15.803632316431">
        <ele>90.6</ele>
        <time>2019-06-07T12:09:32Z</time>
      </trkpt>
      <trkpt lat="59.983073128352" lon="15.803949152251">
        <ele>89.4</ele>
        <time>2019-06-07T12:09:38Z</time>
      </trkpt>
      <trkpt lat="59.983129873815" lon="15.804299431852">
        <ele>89</ele>
        <time>2019-06-07T12:09:44Z</time>
      </trkpt>
      <trkpt lat="59.983192570427" lon="15.804620877717">
        <ele>88.8</ele>
        <time>2019-06-07T12:09:50Z</time>
      </trkpt>
      <trkpt lat="59.983242275094" lon="15.804821875679">
        <ele>88.4</ele>
        <time>2019-06-07T12:09:54Z</time>
      </trkpt>
      <trkpt lat="59.983306815724" lon="15.805106105908">
        <ele>88.6</ele>
        <time>2019-06-07T12:10:00Z</time>
      </trkpt>
      <trkpt lat="59.983373032734" lon="15.805449931446">
        <ele>88.2</ele>
        <time>2019-06-07T12:10:06Z</time>
      </trkpt>
      <trkpt lat="59.983433466233" lon="15.805717230237">
        <ele>87.4</ele>
        <time>2019-06-07T12:10:11Z</time>
      </trkpt>
      <trkpt lat="59.983519967441" lon="15.806033227867">
        <ele>86.4</ele>
        <time>2019-06-07T12:10:17Z</time>
      </trkpt>
      <trkpt lat="59.983529438988" lon="15.80608745876">
        <ele>86.2</ele>
        <time>2019-06-07T12:10:18Z</time>
      </trkpt>
      <trkpt lat="59.983578389284" lon="15.806412592661">
        <ele>86</ele>
        <time>2019-06-07T12:10:24Z</time>
      </trkpt>
      <trkpt lat="59.983650305986" lon="15.806630438242">
        <ele>85.2</ele>
        <time>2019-06-07T12:10:30Z</time>
      </trkpt>
      <trkpt lat="59.983814339769" lon="15.806537315333">
        <ele>84.2</ele>
        <time>2019-06-07T12:10:36Z</time>
      </trkpt>
      <trkpt lat="59.983840407478" lon="15.806534968401">
        <ele>84.2</ele>
        <time>2019-06-07T12:10:37Z</time>
      </trkpt>
      <trkpt lat="59.983995891723" lon="15.806495824928">
        <ele>84.4</ele>
        <time>2019-06-07T12:10:43Z</time>
      </trkpt>
      <trkpt lat="59.984142491154" lon="15.806382836916">
        <ele>84.2</ele>
        <time>2019-06-07T12:10:49Z</time>
      </trkpt>
      <trkpt lat="59.984232848036" lon="15.806159291643">
        <ele>84.2</ele>
        <time>2019-06-07T12:10:55Z</time>
      </trkpt>
      <trkpt lat="59.984302417806" lon="15.805874893776">
        <ele>84.4</ele>
        <time>2019-06-07T12:11:01Z</time>
      </trkpt>
      <trkpt lat="59.984350613731" lon="15.805621508939">
        <ele>85.2</ele>
        <time>2019-06-07T12:11:06Z</time>
      </trkpt>
      <trkpt lat="59.984431247609" lon="15.805339122728">
        <ele>85.2</ele>
        <time>2019-06-07T12:11:12Z</time>
      </trkpt>
      <trkpt lat="59.984524454337" lon="15.80505648506">
        <ele>85.6</ele>
        <time>2019-06-07T12:11:18Z</time>
      </trkpt>
      <trkpt lat="59.984570638606" lon="15.804910723819">
        <ele>86.4</ele>
        <time>2019-06-07T12:11:21Z</time>
      </trkpt>
      <trkpt lat="59.984671053768" lon="15.804651723109">
        <ele>86.4</ele>
        <time>2019-06-07T12:11:27Z</time>
      </trkpt>
      <trkpt lat="59.984787562178" lon="15.804409989113">
        <ele>85.8</ele>
        <time>2019-06-07T12:11:33Z</time>
      </trkpt>
      <trkpt lat="59.984915134696" lon="15.804244781864">
        <ele>85.8</ele>
        <time>2019-06-07T12:11:39Z</time>
      </trkpt>
      <trkpt lat="59.985068355828" lon="15.804066331213">
        <ele>86.4</ele>
        <time>2019-06-07T12:11:45Z</time>
      </trkpt>
      <trkpt lat="59.985154773217" lon="15.803928365139">
        <ele>86.8</ele>
        <time>2019-06-07T12:11:49Z</time>
      </trkpt>
      <trkpt lat="59.98516877099" lon="15.803708843178">
        <ele>86.4</ele>
        <time>2019-06-07T12:11:55Z</time>
      </trkpt>
      <trkpt lat="59.98508327561" lon="15.803463504965">
        <ele>86.2</ele>
        <time>2019-06-07T12:12:01Z</time>
      </trkpt>
      <trkpt lat="59.985010604537" lon="15.803228057394">
        <ele>86.8</ele>
        <time>2019-06-07T12:12:07Z</time>
      </trkpt>
      <trkpt lat="59.98489384467" lon="15.803008116338">
        <ele>87.2</ele>
        <time>2019-06-07T12:12:13Z</time>
      </trkpt>
      <trkpt lat="59.984874650119" lon="15.802972660901">
        <ele>87.6</ele>
        <time>2019-06-07T12:12:14Z</time>
      </trkpt>
      <trkpt lat="59.98477985083" lon="15.80272715505">
        <ele>88.8</ele>
        <time>2019-06-07T12:12:20Z</time>
      </trkpt>
      <trkpt lat="59.984710532517" lon="15.802452061092">
        <ele>90</ele>
        <time>2019-06-07T12:12:26Z</time>
      </trkpt>
      <trkpt lat="59.984589078786" lon="15.802197335151">
        <ele>90.6</ele>
        <time>2019-06-07T12:12:32Z</time>
      </trkpt>
      <trkpt lat="59.984513222591" lon="15.802032798454">
        <ele>91</ele>
        <time>2019-06-07T12:12:36Z</time>
      </trkpt>
      <trkpt lat="59.98442529646" lon="15.801786538232">
        <ele>91.6</ele>
        <time>2019-06-07T12:12:42Z</time>
      </trkpt>
      <trkpt lat="59.984342734745" lon="15.801508929704">
        <ele>91.8</ele>
        <time>2019-06-07T12:12:48Z</time>
      </trkpt>
      <trkpt lat="59.984283558531" lon="15.801320756049">
        <ele>92</ele>
        <time>2019-06-07T12:12:52Z</time>
      </trkpt>
      <trkpt lat="59.984251036759" lon="15.801234254841">
        <ele>92.2</ele>
        <time>2019-06-07T12:12:54Z</time>
      </trkpt>
      <trkpt lat="59.984176689306" lon="15.800951700992">
        <ele>92.8</ele>
        <time>2019-06-07T12:13:00Z</time>
      </trkpt>
      <trkpt lat="59.984117848368" lon="15.800683899287">
        <ele>92.8</ele>
        <time>2019-06-07T12:13:06Z</time>
      </trkpt>
      <trkpt lat="59.984058085421" lon="15.800418528333">
        <ele>92.4</ele>
        <time>2019-06-07T12:13:12Z</time>
      </trkpt>
      <trkpt lat="59.983964627236" lon="15.80016899917">
        <ele>92.4</ele>
        <time>2019-06-07T12:13:18Z</time>
      </trkpt>
      <trkpt lat="59.983863457703" lon="15.79997705366">
        <ele>92.6</ele>
        <time>2019-06-07T12:13:24Z</time>
      </trkpt>
      <trkpt lat="59.983712583503" lon="15.799809248022">
        <ele>92.4</ele>
        <time>2019-06-07T12:13:30Z</time>
      </trkpt>
      <trkpt lat="59.983586603546" lon="15.799634401588">
        <ele>92.4</ele>
        <time>2019-06-07T12:13:36Z</time>
      </trkpt>
      <trkpt lat="59.983459869218" lon="15.799510684744">
        <ele>92</ele>
        <time>2019-06-07T12:13:42Z</time>
      </trkpt>
      <trkpt lat="59.983323830981" lon="15.799380765294">
        <ele>91.8</ele>
        <time>2019-06-07T12:13:48Z</time>
      </trkpt>
      <trkpt lat="59.983182093052" lon="15.799200470625">
        <ele>92</ele>
        <time>2019-06-07T12:13:54Z</time>
      </trkpt>
      <trkpt lat="59.983026860264" lon="15.798993270057">
        <ele>91.6</ele>
        <time>2019-06-07T12:14:00Z</time>
      </trkpt>
      <trkpt lat="59.982876153702" lon="15.798784141652">
        <ele>91.6</ele>
        <time>2019-06-07T12:14:06Z</time>
      </trkpt>
      <trkpt lat="59.982742797673" lon="15.798602254422">
        <ele>91.8</ele>
        <time>2019-06-07T12:14:12Z</time>
      </trkpt>
      <trkpt lat="59.982593348396" lon="15.798450458213">
        <ele>91.6</ele>
        <time>2019-06-07T12:14:18Z</time>
      </trkpt>
      <trkpt lat="59.982456555788" lon="15.798328082473">
        <ele>90.8</ele>
        <time>2019-06-07T12:14:23Z</time>
      </trkpt>
      <trkpt lat="59.982256982749" lon="15.798231355347">
        <ele>91.8</ele>
        <time>2019-06-07T12:14:31Z</time>
      </trkpt>
      <trkpt lat="59.9821001574" lon="15.798073272713">
        <ele>91</ele>
        <time>2019-06-07T12:14:37Z</time>
      </trkpt>
      <trkpt lat="59.981947020087" lon="15.797981658546">
        <ele>90.4</ele>
        <time>2019-06-07T12:14:43Z</time>
      </trkpt>
      <trkpt lat="59.981824057614" lon="15.797819133505">
        <ele>90.6</ele>
        <time>2019-06-07T12:14:49Z</time>
      </trkpt>
      <trkpt lat="59.981725151194" lon="15.797576142224">
        <ele>91.8</ele>
        <time>2019-06-07T12:14:55Z</time>
      </trkpt>
      <trkpt lat="59.981723474814" lon="15.797519732037">
        <ele>92.4</ele>
        <time>2019-06-07T12:14:56Z</time>
      </trkpt>
      <trkpt lat="59.981736131483" lon="15.797354776245">
        <ele>93.4</ele>
        <time>2019-06-07T12:14:59Z</time>
      </trkpt>
      <trkpt lat="59.98179421805" lon="15.79710960567">
        <ele>94.6</ele>
        <time>2019-06-07T12:15:04Z</time>
      </trkpt>
      <trkpt lat="59.981850460599" lon="15.796889748433">
        <ele>95.6</ele>
        <time>2019-06-07T12:15:09Z</time>
      </trkpt>
      <trkpt lat="59.98191156465" lon="15.7966293228">
        <ele>96.4</ele>
        <time>2019-06-07T12:15:15Z</time>
      </trkpt>
      <trkpt lat="59.981942493861" lon="15.796499906264">
        <ele>96.6</ele>
        <time>2019-06-07T12:15:18Z</time>
      </trkpt>
      <trkpt lat="59.982020948445" lon="15.796321874708">
        <ele>98</ele>
        <time>2019-06-07T12:15:23Z</time>
      </trkpt>
      <trkpt lat="59.98211356844" lon="15.796101179281">
        <ele>98.4</ele>
        <time>2019-06-07T12:15:29Z</time>
      </trkpt>
      <trkpt lat="59.982207361901" lon="15.79589758293">
        <ele>98.6</ele>
        <time>2019-06-07T12:15:35Z</time>
      </trkpt>
      <trkpt lat="59.982276680214" lon="15.795723993781">
        <ele>99</ele>
        <time>2019-06-07T12:15:39Z</time>
      </trkpt>
      <trkpt lat="59.982356056807" lon="15.795445211787">
        <ele>98.8</ele>
        <time>2019-06-07T12:15:45Z</time>
      </trkpt>
      <trkpt lat="59.982274333282" lon="15.7952798369">
        <ele>98.4</ele>
        <time>2019-06-07T12:15:51Z</time>
      </trkpt>
      <trkpt lat="59.982175091586" lon="15.795064841165">
        <ele>98.2</ele>
        <time>2019-06-07T12:15:57Z</time>
      </trkpt>
      <trkpt lat="59.982099067753" lon="15.79490432778">
        <ele>98</ele>
        <time>2019-06-07T12:16:01Z</time>
      </trkpt>
      <trkpt lat="59.982003178817" lon="15.794654630979">
        <ele>97.6</ele>
        <time>2019-06-07T12:16:07Z</time>
      </trkpt>
      <trkpt lat="59.981905110587" lon="15.794393199518">
        <ele>97.2</ele>
        <time>2019-06-07T12:16:13Z</time>
      </trkpt>
      <trkpt lat="59.981807209995" lon="15.794165966209">
        <ele>96.8</ele>
        <time>2019-06-07T12:16:18Z</time>
      </trkpt>
      <trkpt lat="59.981677458183" lon="15.793884082912">
        <ele>96.2</ele>
        <time>2019-06-07T12:16:24Z</time>
      </trkpt>
      <trkpt lat="59.981588107129" lon="15.793540508831">
        <ele>96.2</ele>
        <time>2019-06-07T12:16:30Z</time>
      </trkpt>
      <trkpt lat="59.981585257283" lon="15.793347389855">
        <ele>95.6</ele>
        <time>2019-06-07T12:16:33Z</time>
      </trkpt>
      <trkpt lat="59.981657928356" lon="15.793002390851">
        <ele>95.4</ele>
        <time>2019-06-07T12:16:39Z</time>
      </trkpt>
      <trkpt lat="59.981806539443" lon="15.792753699878">
        <ele>95.8</ele>
        <time>2019-06-07T12:16:45Z</time>
      </trkpt>
      <trkpt lat="59.9819828108" lon="15.792558150151">
        <ele>96</ele>
        <time>2019-06-07T12:16:51Z</time>
      </trkpt>
      <trkpt lat="59.98214122871" lon="15.79234784828">
        <ele>96.2</ele>
        <time>2019-06-07T12:16:57Z</time>
      </trkpt>
      <trkpt lat="59.982290342711" lon="15.792171074009">
        <ele>96.4</ele>
        <time>2019-06-07T12:17:03Z</time>
      </trkpt>
    </trkseg>
  </trk>
</gpx>